Time,TemperatureF,DewpointF,PressureIn,WindDirection,WindDirectionDegrees,WindSpeedMPH,WindSpeedGustMPH,Humidity,HourlyPrecipIn,Conditions,Clouds,dailyrainin,SoftwareType,DateUTC
2013-11-23 00:00:00,22.8,13.9,30.68,NE,38,0.0,0.0,68,0.00,,SKC,0.00,VWS V13.01,2013-11-23 06:00:00,
2013-11-23 00:10:00,23.0,14.0,30.68,NE,38,0.0,0.0,68,0.00,,SKC,0.00,VWS V13.01,2013-11-23 06:10:00,
2013-11-23 00:20:00,23.0,14.0,30.68,NE,38,0.0,0.0,68,0.00,,SKC,0.00,VWS V13.01,2013-11-23 06:20:00,
2013-11-23 00:30:00,23.0,14.0,30.68,NE,38,0.0,0.0,68,0.00,,SKC,0.00,VWS V13.01,2013-11-23 06:30:00,
2013-11-23 00:40:00,23.0,13.7,30.65,NE,38,0.0,0.0,67,0.00,,SKC,0.00,VWS V13.01,2013-11-23 06:40:00,
2013-11-23 00:50:00,23.0,13.4,30.65,NE,38,0.0,0.0,66,0.00,,SKC,0.00,VWS V13.01,2013-11-23 06:50:00,
2013-11-23 01:00:00,23.0,13.0,30.65,NE,38,0.0,0.0,65,0.00,,SKC,0.00,VWS V13.01,2013-11-23 07:00:00,
2013-11-23 01:10:00,23.0,12.6,30.65,NE,38,0.0,0.0,64,0.00,,SKC,0.00,VWS V13.01,2013-11-23 07:10:00,
2013-11-23 01:20:00,23.2,12.5,30.65,NE,38,0.0,0.0,63,0.00,,SKC,0.00,VWS V13.01,2013-11-23 07:20:00,
2013-11-23 01:30:00,23.2,12.5,30.65,NE,38,0.0,0.0,63,0.00,,SKC,0.00,VWS V13.01,2013-11-23 07:30:00,
2013-11-23 01:40:00,23.0,12.3,30.65,NE,38,0.0,0.0,63,0.00,,SKC,0.00,VWS V13.01,2013-11-23 07:40:00,
2013-11-23 01:50:00,23.0,12.3,30.65,NE,38,0.0,0.0,63,0.00,,SKC,0.00,VWS V13.01,2013-11-23 07:50:00,
2013-11-23 02:00:00,23.2,12.1,30.65,NE,38,0.0,0.0,62,0.00,,SKC,0.00,VWS V13.01,2013-11-23 08:00:00,
2013-11-23 02:10:00,23.4,12.3,30.65,NE,38,0.0,0.0,62,0.00,,SKC,0.00,VWS V13.01,2013-11-23 08:10:00,
2013-11-23 02:20:00,23.5,12.1,30.65,NE,38,0.0,0.0,61,0.00,,SKC,0.00,VWS V13.01,2013-11-23 08:20:00,
2013-11-23 02:30:00,23.5,12.1,30.65,NE,38,0.0,0.0,61,0.00,,SKC,0.00,VWS V13.01,2013-11-23 08:30:00,
2013-11-23 02:40:00,23.9,12.1,30.65,NE,38,0.0,0.0,60,0.00,,SKC,0.00,VWS V13.01,2013-11-23 08:40:00,
2013-11-23 02:50:00,24.4,12.2,30.68,NE,38,0.0,0.0,59,0.00,,SKC,0.00,VWS V13.01,2013-11-23 08:50:00,
2013-11-23 03:00:00,25.0,12.3,30.68,NE,38,0.0,0.0,58,0.00,,SKC,0.00,VWS V13.01,2013-11-23 09:00:00,
2013-11-23 03:10:00,25.0,11.9,30.68,NE,38,0.0,0.0,57,0.00,,SKC,0.00,VWS V13.01,2013-11-23 09:10:00,
2013-11-23 03:20:00,24.8,12.1,30.68,NE,38,0.0,0.0,58,0.00,,SKC,0.00,VWS V13.01,2013-11-23 09:20:00,
2013-11-23 03:30:00,24.6,10.8,30.68,NE,38,0.0,0.0,55,0.00,,SKC,0.00,VWS V13.01,2013-11-23 09:30:00,
2013-11-23 03:40:00,24.4,9.8,30.68,NE,38,0.0,0.0,53,0.00,,SKC,0.00,VWS V13.01,2013-11-23 09:40:00,
2013-11-23 03:50:00,24.3,9.6,30.68,NE,38,0.0,0.0,53,0.00,,SKC,0.00,VWS V13.01,2013-11-23 09:50:00,
2013-11-23 04:00:00,24.1,9.4,30.68,NE,38,0.0,0.0,53,0.00,,SKC,0.00,VWS V13.01,2013-11-23 10:00:00,
2013-11-23 04:10:00,23.7,9.1,30.71,NE,38,0.0,0.0,53,0.00,,SKC,0.00,VWS V13.01,2013-11-23 10:10:00,
2013-11-23 04:20:00,23.5,8.9,30.71,NE,38,0.0,0.0,53,0.00,,SKC,0.00,VWS V13.01,2013-11-23 10:20:00,
2013-11-23 04:30:00,23.4,8.8,30.71,NE,38,0.0,0.0,53,0.00,,SKC,0.00,VWS V13.01,2013-11-23 10:30:00,
2013-11-23 04:40:00,23.2,8.6,30.71,NE,38,0.0,0.0,53,0.00,,SKC,0.00,VWS V13.01,2013-11-23 10:40:00,
2013-11-23 04:50:00,23.0,8.4,30.71,NE,38,0.0,0.0,53,0.00,,SKC,0.00,VWS V13.01,2013-11-23 10:50:00,
2013-11-23 05:00:00,22.8,8.3,30.71,NE,38,0.0,0.0,53,0.00,,SKC,0.00,VWS V13.01,2013-11-23 11:00:00,
2013-11-23 05:10:00,22.8,8.3,30.71,NE,38,0.0,0.0,53,0.00,,SKC,0.00,VWS V13.01,2013-11-23 11:10:00,
2013-11-23 05:20:00,22.6,8.1,30.71,NE,38,0.0,0.0,53,0.00,,SKC,0.00,VWS V13.01,2013-11-23 11:20:00,
2013-11-23 05:30:00,22.5,7.9,30.71,NE,38,0.0,0.0,53,0.00,,SKC,0.00,VWS V13.01,2013-11-23 11:30:00,
2013-11-23 05:40:00,22.3,7.8,30.74,NE,38,0.0,0.0,53,0.00,,SKC,0.00,VWS V13.01,2013-11-23 11:40:00,
2013-11-23 05:50:00,22.1,7.6,30.74,NE,38,0.0,0.0,53,0.00,,SKC,0.00,VWS V13.01,2013-11-23 11:50:00,
2013-11-23 06:00:00,22.1,7.6,30.74,NE,38,0.0,0.0,53,0.00,,SKC,0.00,VWS V13.01,2013-11-23 12:00:00,
2013-11-23 06:10:00,21.9,7.4,30.74,NE,38,0.0,0.0,53,0.00,,SKC,0.00,VWS V13.01,2013-11-23 12:10:00,
2013-11-23 06:20:00,21.9,7.4,30.74,NE,38,0.0,0.0,53,0.00,,SKC,0.00,VWS V13.01,2013-11-23 12:20:00,
2013-11-23 06:30:00,21.7,7.3,30.74,NE,38,0.0,0.0,53,0.00,,SKC,0.00,VWS V13.01,2013-11-23 12:30:00,
2013-11-23 06:40:00,21.7,7.3,30.77,NE,38,0.0,0.0,53,0.00,,SKC,0.00,VWS V13.01,2013-11-23 12:40:00,
2013-11-23 06:50:00,21.6,7.1,30.77,NE,38,0.0,0.0,53,0.00,,SKC,0.00,VWS V13.01,2013-11-23 12:50:00,
2013-11-23 07:00:00,21.6,7.1,30.77,NE,38,0.0,0.0,53,0.00,,SKC,0.00,VWS V13.01,2013-11-23 13:00:00,
2013-11-23 07:10:00,21.4,6.9,30.77,NE,38,0.0,0.0,53,0.00,,SKC,0.00,VWS V13.01,2013-11-23 13:10:00,
2013-11-23 07:20:00,21.2,5.9,30.77,NE,38,0.0,0.0,51,0.00,,SKC,0.00,VWS V13.01,2013-11-23 13:20:00,
2013-11-23 07:30:00,21.2,6.8,30.77,NE,38,0.0,0.0,53,0.00,,SKC,0.00,VWS V13.01,2013-11-23 13:30:00,
2013-11-23 07:40:00,21.0,6.6,30.80,NE,38,0.0,0.0,53,0.00,,SKC,0.00,VWS V13.01,2013-11-23 13:40:00,
2013-11-23 07:50:00,21.2,8.0,30.80,NE,38,0.0,0.0,56,0.00,,SKC,0.00,VWS V13.01,2013-11-23 13:50:00,
2013-11-23 08:00:00,21.0,8.6,30.80,NE,38,0.0,0.0,58,0.00,,SKC,0.00,VWS V13.01,2013-11-23 14:00:00,
2013-11-23 08:10:00,20.8,8.8,30.80,NE,38,0.0,0.0,59,0.00,,SKC,0.00,VWS V13.01,2013-11-23 14:10:00,
2013-11-23 08:20:00,20.8,8.8,30.83,NE,38,0.0,0.0,59,0.00,,SKC,0.00,VWS V13.01,2013-11-23 14:20:00,
2013-11-23 08:30:00,20.8,8.4,30.83,NE,38,0.0,0.0,58,0.00,,SKC,0.00,VWS V13.01,2013-11-23 14:30:00,
2013-11-23 08:40:00,20.7,7.5,30.83,NE,38,0.0,0.0,56,0.00,,SKC,0.00,VWS V13.01,2013-11-23 14:40:00,
2013-11-23 08:50:00,20.7,5.4,30.83,NE,38,0.0,0.0,51,0.00,,SKC,0.00,VWS V13.01,2013-11-23 14:50:00,
2013-11-23 09:00:00,20.5,3.9,30.83,NE,38,0.0,0.0,48,0.00,,SKC,0.00,VWS V13.01,2013-11-23 15:00:00,
2013-11-23 09:10:00,19.9,2.5,30.83,NE,38,0.0,0.0,46,0.00,,SKC,0.00,VWS V13.01,2013-11-23 15:10:00,
2013-11-23 09:20:00,19.9,2.5,30.83,NE,38,0.0,0.0,46,0.00,,SKC,0.00,VWS V13.01,2013-11-23 15:20:00,
2013-11-23 09:30:00,19.8,2.3,30.83,NE,38,0.0,0.0,46,0.00,,SKC,0.00,VWS V13.01,2013-11-23 15:30:00,
2013-11-23 09:40:00,19.8,2.3,30.83,NE,38,0.0,0.0,46,0.00,,SKC,0.00,VWS V13.01,2013-11-23 15:40:00,
2013-11-23 09:50:00,19.9,2.5,30.83,NE,38,0.0,0.0,46,0.00,,SKC,0.00,VWS V13.01,2013-11-23 15:50:00,
2013-11-23 10:00:00,20.3,2.8,30.83,NE,38,0.0,0.0,46,0.00,,SKC,0.00,VWS V13.01,2013-11-23 16:00:00,
2013-11-23 10:10:00,20.7,3.2,30.86,NE,38,0.0,0.0,46,0.00,,SKC,0.00,VWS V13.01,2013-11-23 16:10:00,
2013-11-23 10:20:00,20.7,1.7,30.86,NE,38,0.0,0.0,43,0.00,,SKC,0.00,VWS V13.01,2013-11-23 16:20:00,
2013-11-23 10:30:00,20.7,1.7,30.86,NE,38,0.0,0.0,43,0.00,,SKC,0.00,VWS V13.01,2013-11-23 16:30:00,
2013-11-23 10:40:00,21.2,2.2,30.86,NE,38,0.0,0.0,43,0.00,,SKC,0.00,VWS V13.01,2013-11-23 16:40:00,
2013-11-23 10:50:00,21.2,2.2,30.86,NE,38,0.0,0.0,43,0.00,,SKC,0.00,VWS V13.01,2013-11-23 16:50:00,
2013-11-23 11:00:00,21.2,2.2,30.86,NE,38,0.0,0.0,43,0.00,,SKC,0.00,VWS V13.01,2013-11-23 17:00:00,
2013-11-23 11:10:00,21.2,2.2,30.86,NE,38,0.0,0.0,43,0.00,,SKC,0.00,VWS V13.01,2013-11-23 17:10:00,
2013-11-23 11:20:00,20.7,1.7,30.86,NE,38,0.0,0.0,43,0.00,,SKC,0.00,VWS V13.01,2013-11-23 17:20:00,
2013-11-23 11:30:00,20.8,1.9,30.86,NE,38,0.0,0.0,43,0.00,,SKC,0.00,VWS V13.01,2013-11-23 17:30:00,
2013-11-23 11:40:00,21.0,2.0,30.83,NE,38,0.0,0.0,43,0.00,,SKC,0.00,VWS V13.01,2013-11-23 17:40:00,
2013-11-23 11:50:00,21.2,2.2,30.83,NE,38,0.0,0.0,43,0.00,,SKC,0.00,VWS V13.01,2013-11-23 17:50:00,
2013-11-23 12:00:00,21.6,2.5,30.83,NE,38,0.0,0.0,43,0.00,,SKC,0.00,VWS V13.01,2013-11-23 18:00:00,
2013-11-23 12:10:00,21.7,2.7,30.83,NE,38,0.0,0.0,43,0.00,,SKC,0.00,VWS V13.01,2013-11-23 18:10:00,
2013-11-23 12:20:00,21.9,2.9,30.83,NE,38,0.0,0.0,43,0.00,,SKC,0.00,VWS V13.01,2013-11-23 18:20:00,
2013-11-23 12:30:00,21.9,2.9,30.83,NE,38,0.0,0.0,43,0.00,,SKC,0.00,VWS V13.01,2013-11-23 18:30:00,
2013-11-23 12:40:00,21.2,2.2,30.83,NE,38,0.0,0.0,43,0.00,,SKC,0.00,VWS V13.01,2013-11-23 18:40:00,
2013-11-23 12:50:00,21.2,2.2,30.83,NE,38,0.0,0.0,43,0.00,,SKC,0.00,VWS V13.01,2013-11-23 18:50:00,
2013-11-23 13:00:00,21.6,2.5,30.83,NE,38,0.0,0.0,43,0.00,,SKC,0.00,VWS V13.01,2013-11-23 19:00:00,
2013-11-23 13:10:00,21.7,2.7,30.83,NE,38,0.0,0.0,43,0.00,,SKC,0.00,VWS V13.01,2013-11-23 19:10:00,
2013-11-23 13:20:00,21.9,2.9,30.83,NE,38,0.0,0.0,43,0.00,,SKC,0.00,VWS V13.01,2013-11-23 19:20:00,
2013-11-23 13:30:00,22.1,3.0,30.83,NE,38,0.0,0.0,43,0.00,,SKC,0.00,VWS V13.01,2013-11-23 19:30:00,
2013-11-23 13:40:00,22.3,3.2,30.83,NE,38,0.0,0.0,43,0.00,,SKC,0.00,VWS V13.01,2013-11-23 19:40:00,
2013-11-23 13:50:00,22.3,3.2,30.83,NE,38,0.0,0.0,43,0.00,,SKC,0.00,VWS V13.01,2013-11-23 19:50:00,
2013-11-23 14:00:00,22.5,3.4,30.83,NE,38,0.0,0.0,43,0.00,,SKC,0.00,VWS V13.01,2013-11-23 20:00:00,
2013-11-23 14:10:00,22.5,3.4,30.83,NE,38,0.0,0.0,43,0.00,,SKC,0.00,VWS V13.01,2013-11-23 20:10:00,
2013-11-23 14:20:00,23.0,3.8,30.83,NE,38,0.0,0.0,43,0.00,,SKC,0.00,VWS V13.01,2013-11-23 20:20:00,
2013-11-23 14:30:00,23.2,4.0,30.83,NE,38,0.0,0.0,43,0.00,,SKC,0.00,VWS V13.01,2013-11-23 20:30:00,
2013-11-23 14:40:00,23.2,4.0,30.83,NE,38,0.0,0.0,43,0.00,,SKC,0.00,VWS V13.01,2013-11-23 20:40:00,
2013-11-23 14:50:00,23.0,3.8,30.83,NE,38,0.0,0.0,43,0.00,,SKC,0.00,VWS V13.01,2013-11-23 20:50:00,
2013-11-23 15:00:00,22.8,3.7,30.83,NE,38,0.0,0.0,43,0.00,,SKC,0.00,VWS V13.01,2013-11-23 21:00:00,
2013-11-23 15:10:00,22.6,3.5,30.83,NE,38,0.0,0.0,43,0.00,,SKC,0.00,VWS V13.01,2013-11-23 21:10:00,
2013-11-23 15:20:00,22.5,3.4,30.83,NE,38,0.0,0.0,43,0.00,,SKC,0.00,VWS V13.01,2013-11-23 21:20:00,
2013-11-23 15:30:00,22.5,3.4,30.83,NE,38,0.0,0.0,43,0.00,,SKC,0.00,VWS V13.01,2013-11-23 21:30:00,
2013-11-23 15:40:00,22.5,3.4,30.83,NE,38,0.0,0.0,43,0.00,,SKC,0.00,VWS V13.01,2013-11-23 21:40:00,
2013-11-23 15:50:00,22.5,3.4,30.83,NE,38,0.0,0.0,43,0.00,,SKC,0.00,VWS V13.01,2013-11-23 21:50:00,
2013-11-23 16:00:00,22.1,3.0,30.83,NE,38,0.0,0.0,43,0.00,,SKC,0.00,VWS V13.01,2013-11-23 22:00:00,
2013-11-23 16:10:00,22.1,3.0,30.83,NE,38,0.0,0.0,43,0.00,,SKC,0.00,VWS V13.01,2013-11-23 22:10:00,
2013-11-23 16:20:00,21.9,2.9,30.83,NE,38,0.0,0.0,43,0.00,,SKC,0.00,VWS V13.01,2013-11-23 22:20:00,
2013-11-23 16:30:00,21.7,2.7,30.83,NE,38,0.0,0.0,43,0.00,,SKC,0.00,VWS V13.01,2013-11-23 22:30:00,
2013-11-23 16:40:00,21.4,2.4,30.83,NE,38,0.0,0.0,43,0.00,,SKC,0.00,VWS V13.01,2013-11-23 22:40:00,
2013-11-23 16:50:00,21.2,2.2,30.83,NE,38,0.0,0.0,43,0.00,,SKC,0.00,VWS V13.01,2013-11-23 22:50:00,
2013-11-23 17:00:00,20.8,1.9,30.83,NE,38,0.0,0.0,43,0.00,,SKC,0.00,VWS V13.01,2013-11-23 23:00:00,
2013-11-23 17:10:00,20.7,1.7,30.83,NE,38,0.0,0.0,43,0.00,,SKC,0.00,VWS V13.01,2013-11-23 23:10:00,
2013-11-23 17:20:00,20.3,1.4,30.83,NE,38,0.0,0.0,43,0.00,,SKC,0.00,VWS V13.01,2013-11-23 23:20:00,
2013-11-23 17:30:00,20.3,1.4,30.83,NE,38,0.0,0.0,43,0.00,,SKC,0.00,VWS V13.01,2013-11-23 23:30:00,
2013-11-23 17:40:00,19.9,1.1,30.83,NE,38,0.0,0.0,43,0.00,,SKC,0.00,VWS V13.01,2013-11-23 23:40:00,
2013-11-23 17:50:00,19.8,0.9,30.80,NE,38,0.0,0.0,43,0.00,,SKC,0.00,VWS V13.01,2013-11-23 23:50:00,
2013-11-23 18:00:00,19.4,1.1,30.80,NE,38,0.0,0.0,44,0.00,,SKC,0.00,VWS V13.01,2013-11-24 00:00:00,
2013-11-23 18:10:00,19.2,0.9,30.83,NE,38,0.0,0.0,44,0.00,,SKC,0.00,VWS V13.01,2013-11-24 00:10:00,
2013-11-23 18:20:00,18.9,0.6,30.83,NE,38,0.0,0.0,44,0.00,,SKC,0.00,VWS V13.01,2013-11-24 00:20:00,
2013-11-23 18:30:00,18.7,0.4,30.83,NE,38,0.0,0.0,44,0.00,,SKC,0.00,VWS V13.01,2013-11-24 00:30:00,
2013-11-23 18:40:00,18.3,0.1,30.83,NE,38,0.0,0.0,44,0.00,,SKC,0.00,VWS V13.01,2013-11-24 00:40:00,
2013-11-23 18:50:00,18.1,-0.1,30.83,NE,38,0.0,0.0,44,0.00,,SKC,0.00,VWS V13.01,2013-11-24 00:50:00,
2013-11-23 19:00:00,17.8,-0.4,30.83,NE,38,0.0,0.0,44,0.00,,SKC,0.00,VWS V13.01,2013-11-24 01:00:00,
2013-11-23 19:10:00,17.4,-0.8,30.83,NE,38,0.0,0.0,44,0.00,,SKC,0.00,VWS V13.01,2013-11-24 01:10:00,
2013-11-23 19:20:00,17.1,-1.1,30.83,NE,38,0.0,0.0,44,0.00,,SKC,0.00,VWS V13.01,2013-11-24 01:20:00,
2013-11-23 19:30:00,16.9,-1.2,30.83,NE,38,0.0,0.0,44,0.00,,SKC,0.00,VWS V13.01,2013-11-24 01:30:00,
2013-11-23 19:40:00,16.7,-1.4,30.83,NE,38,0.0,0.0,44,0.00,,SKC,0.00,VWS V13.01,2013-11-24 01:40:00,
2013-11-23 19:50:00,16.5,-1.6,30.83,NE,38,0.0,0.0,44,0.00,,SKC,0.00,VWS V13.01,2013-11-24 01:50:00,
2013-11-23 20:00:00,16.2,-1.9,30.83,NE,38,0.0,0.0,44,0.00,,SKC,0.00,VWS V13.01,2013-11-24 02:00:00,
2013-11-23 20:10:00,16.0,-2.1,30.83,NE,38,0.0,0.0,44,0.00,,SKC,0.00,VWS V13.01,2013-11-24 02:10:00,
2013-11-23 20:20:00,15.8,-0.9,30.83,NE,38,0.0,0.0,47,0.00,,SKC,0.00,VWS V13.01,2013-11-24 02:20:00,
2013-11-23 20:30:00,15.4,-1.2,30.83,NE,38,0.0,0.0,47,0.00,,SKC,0.00,VWS V13.01,2013-11-24 02:30:00,
2013-11-23 20:40:00,15.3,-1.3,30.83,NE,38,0.0,0.0,47,0.00,,SKC,0.00,VWS V13.01,2013-11-24 02:40:00,
2013-11-23 20:50:00,15.1,-1.5,30.83,NE,38,0.0,0.0,47,0.00,,SKC,0.00,VWS V13.01,2013-11-24 02:50:00,
2013-11-23 21:00:00,14.9,-1.7,30.83,NE,38,0.0,0.0,47,0.00,,SKC,0.00,VWS V13.01,2013-11-24 03:00:00,
2013-11-23 21:10:00,14.9,-1.7,30.83,NE,38,0.0,0.0,47,0.00,,SKC,0.00,VWS V13.01,2013-11-24 03:10:00,
2013-11-23 21:20:00,14.5,-2.0,30.83,NE,38,0.0,0.0,47,0.00,,SKC,0.00,VWS V13.01,2013-11-24 03:20:00,
2013-11-23 21:30:00,14.5,-2.0,30.83,NE,38,0.0,0.0,47,0.00,,SKC,0.00,VWS V13.01,2013-11-24 03:30:00,
2013-11-23 21:40:00,14.4,-2.2,30.80,NE,38,0.0,0.0,47,0.00,,SKC,0.00,VWS V13.01,2013-11-24 03:40:00,
2013-11-23 21:50:00,14.4,-2.2,30.80,NE,38,0.0,0.0,47,0.00,,SKC,0.00,VWS V13.01,2013-11-24 03:50:00,
2013-11-23 22:00:00,14.2,-2.3,30.80,NE,38,0.0,0.0,47,0.00,,SKC,0.00,VWS V13.01,2013-11-24 04:00:00,
2013-11-23 22:10:00,14.2,-2.3,30.80,NE,38,0.0,0.0,47,0.00,,SKC,0.00,VWS V13.01,2013-11-24 04:10:00,
2013-11-23 22:20:00,14.2,-2.3,30.80,NE,38,0.0,0.0,47,0.00,,SKC,0.00,VWS V13.01,2013-11-24 04:20:00,
2013-11-23 22:30:00,14.0,-2.1,30.80,NE,38,0.0,0.0,48,0.00,,SKC,0.00,VWS V13.01,2013-11-24 04:30:00,
2013-11-23 22:40:00,13.8,-2.2,30.83,NE,38,0.0,0.0,48,0.00,,SKC,0.00,VWS V13.01,2013-11-24 04:40:00,
2013-11-23 22:50:00,13.6,-2.4,30.83,NE,38,0.0,0.0,48,0.00,,SKC,0.00,VWS V13.01,2013-11-24 04:50:00,
2013-11-23 23:00:00,13.5,-2.6,30.83,NE,38,0.0,0.0,48,0.00,,SKC,0.00,VWS V13.01,2013-11-24 05:00:00,
2013-11-23 23:10:00,13.3,-2.7,30.80,NE,38,0.0,0.0,48,0.00,,SKC,0.00,VWS V13.01,2013-11-24 05:10:00,
2013-11-23 23:20:00,13.3,-2.7,30.80,NE,38,0.0,0.0,48,0.00,,SKC,0.00,VWS V13.01,2013-11-24 05:20:00,
2013-11-23 23:30:00,13.1,-2.9,30.80,NE,38,0.0,0.0,48,0.00,,SKC,0.00,VWS V13.01,2013-11-24 05:30:00,
2013-11-23 23:40:00,12.9,-3.1,30.80,NE,38,0.0,0.0,48,0.00,,SKC,0.00,VWS V13.01,2013-11-24 05:40:00,
2013-11-23 23:50:00,12.9,-3.1,30.80,NE,38,0.0,0.0,48,0.00,,SKC,0.00,VWS V13.01,2013-11-24 05:50:00,